Feed Springs, Ohio
Current Conditions -  °F | °C
As of 3:53 PM on Saturday 20 Dec 2014 (Local Time) from KPHD Reporting Station
Overcast Overcast  
Wind Chill: 27°   Ceiling: 2900
Heat Index: 32°   Visibility: 10mi
Dew Point: 20°   Wind: 5mph
Humidity: 61%   Direction: 20°NNE
Pressure: 30.25"   Gusts: NA
Location:  40.3767°N, 81.2875°W
Report Text: KPHD 202053Z AUTO 02004KT 10SM OVC029 00/M07 A3025 RMK AO2 SLP251 T00001067 55007
Loading
Personal Weather Stations






























Interactive Weather Map New forecast layout! Learn more

10-Day Weather Forecast

Advertisements
Track Severe Weather on mobile